TimeCET,TemperatureF,Dew PointF,Humidity,Sea Level PressureIn,VisibilityMPH,Wind Direction,Wind SpeedMPH,Gust SpeedMPH,PrecipitationIn,Events,Conditions,WindDirDegrees,DateUTC
12:20 AM,44.6,39.2,81,30.06,6.2,WSW,17.3,-,N/A,,Scattered Clouds,250,2013-01-30 23:20:00
12:50 AM,44.6,39.2,81,30.09,6.2,WSW,18.4,-,N/A,,Scattered Clouds,250,2013-01-30 23:50:00
1:00 AM,44,40,79,30.12,9,WSW,17.9,,,,Partly Cloudy,250,2013-01-31 00:00:00
1:20 AM,44.6,39.2,81,30.09,6.2,WSW,16.1,-,N/A,,Partly Cloudy,250,2013-01-31 00:20:00
1:50 AM,44.6,39.2,81,30.09,6.2,WSW,18.4,-,N/A,,Partly Cloudy,240,2013-01-31 00:50:00
2:20 AM,44.6,39.2,81,30.09,6.2,WSW,16.1,-,N/A,,Scattered Clouds,240,2013-01-31 01:20:00
2:50 AM,44.6,39.2,81,30.12,6.2,WSW,17.3,-,N/A,,Scattered Clouds,240,2013-01-31 01:50:00
3:20 AM,44.6,39.2,81,30.12,6.2,WSW,16.1,-,N/A,,Scattered Clouds,250,2013-01-31 02:20:00
3:50 AM,42.8,39.2,87,30.12,6.2,SW,13.8,-,N/A,,Scattered Clouds,230,2013-01-31 02:50:00
4:00 AM,44,39,76,30.14,9,SW,13.4,,,,Mostly Cloudy,230,2013-01-31 03:00:00
4:20 AM,44.6,39.2,81,30.12,6.2,SW,16.1,-,N/A,,Scattered Clouds,230,2013-01-31 03:20:00
4:50 AM,42.8,39.2,87,30.09,6.2,SW,16.1,-,N/A,,Scattered Clouds,220,2013-01-31 03:50:00
5:20 AM,42.8,39.2,87,30.09,6.2,SSW,16.1,-,N/A,,Scattered Clouds,210,2013-01-31 04:20:00
5:50 AM,42.8,39.2,87,30.06,6.2,SSW,12.7,-,N/A,,Partly Cloudy,210,2013-01-31 04:50:00
6:20 AM,42.8,39.2,87,30.06,6.2,SSW,15.0,-,N/A,,Partly Cloudy,210,2013-01-31 05:20:00
6:50 AM,42.8,39.2,87,30.06,6.2,SSW,13.8,-,N/A,,Partly Cloudy,210,2013-01-31 05:50:00
7:00 AM,42,38,83,30.09,9,SSW,13.4,,,,Scattered Clouds,210,2013-01-31 06:00:00
7:20 AM,42.8,39.2,87,30.06,6.2,SSW,17.3,-,N/A,,Partly Cloudy,210,2013-01-31 06:20:00
7:50 AM,42.8,37.4,81,30.04,6.2,SSW,17.3,-,N/A,,Scattered Clouds,210,2013-01-31 06:50:00
8:20 AM,42.8,37.4,81,30.04,6.2,SSW,15.0,-,N/A,,Scattered Clouds,200,2013-01-31 07:20:00
8:50 AM,42.8,37.4,81,30.01,6.2,SSW,17.3,-,N/A,,Partly Cloudy,200,2013-01-31 07:50:00
9:20 AM,42.8,37.4,81,30.01,6.2,SSW,21.9,-,N/A,,Partly Cloudy,210,2013-01-31 08:20:00
9:50 AM,42.8,37.4,81,29.98,6.2,SSW,21.9,-,N/A,,Partly Cloudy,210,2013-01-31 08:50:00
10:00 AM,43,37,73,30.02,9,SSW,22.4,,,,Scattered Clouds,210,2013-01-31 09:00:00
10:20 AM,42.8,37.4,81,29.98,6.2,SSW,23.0,35.7,N/A,,Partly Cloudy,210,2013-01-31 09:20:00
10:50 AM,42.8,37.4,81,29.95,6.2,SSW,25.3,38.0,N/A,,Scattered Clouds,210,2013-01-31 09:50:00
11:20 AM,42.8,37.4,81,29.95,6.2,SSW,29.9,41.4,N/A,,Scattered Clouds,210,2013-01-31 10:20:00
11:50 AM,42.8,37.4,81,29.95,6.2,SSW,26.5,40.3,N/A,Rain,Light Rain,210,2013-01-31 10:50:00
12:20 PM,42.8,41.0,93,29.95,2.8,SW,23.0,-,N/A,Rain,Rain,220,2013-01-31 11:20:00
12:50 PM,42.8,41.0,93,29.92,3.7,SW,25.3,-,N/A,Rain,Light Rain,220,2013-01-31 11:50:00
1:00 PM,43,41,88,29.96,4,SW,24.6,,,Rain,Light Rain,220,2013-01-31 12:00:00
1:20 PM,44.6,41.0,87,29.95,6.2,SW,23.0,34.5,N/A,Rain,Light Rain,220,2013-01-31 12:20:00
1:50 PM,44.6,42.8,93,29.92,6.2,SW,21.9,-,N/A,,Mostly Cloudy,230,2013-01-31 12:50:00
2:20 PM,46.4,42.8,87,29.92,6.2,WSW,19.6,-,N/A,,Mostly Cloudy,240,2013-01-31 13:20:00
2:50 PM,48.2,42.8,82,29.92,6.2,WSW,25.3,41.4,N/A,,Mostly Cloudy,250,2013-01-31 13:50:00
3:20 PM,48.2,42.8,82,29.92,6.2,WSW,24.2,35.7,N/A,,Mostly Cloudy,250,2013-01-31 14:20:00
3:50 PM,48.2,41.0,76,29.92,6.2,WSW,21.9,-,N/A,,Mostly Cloudy,250,2013-01-31 14:50:00
4:00 PM,48,40,64,29.94,11,WSW,20.1,,,,Partly Cloudy,250,2013-01-31 15:00:00
4:20 PM,48.2,39.2,71,29.92,6.2,WSW,20.7,33.4,N/A,,Mostly Cloudy,250,2013-01-31 15:20:00
4:50 PM,48.2,39.2,71,29.92,6.2,WSW,21.9,34.5,N/A,,Scattered Clouds,250,2013-01-31 15:50:00
5:20 PM,46.4,39.2,76,29.92,6.2,WSW,24.2,-,N/A,,Scattered Clouds,250,2013-01-31 16:20:00
5:50 PM,46.4,39.2,76,29.92,6.2,WSW,24.2,36.8,N/A,,Scattered Clouds,250,2013-01-31 16:50:00
6:20 PM,46.4,39.2,76,29.95,6.2,WSW,20.7,-,N/A,,Scattered Clouds,250,2013-01-31 17:20:00
6:50 PM,46.4,39.2,76,29.95,6.2,WSW,21.9,33.4,N/A,,Scattered Clouds,250,2013-01-31 17:50:00
7:00 PM,46,39,69,29.97,8,WSW,22.4,,,,Partly Cloudy,250,2013-01-31 18:00:00
7:20 PM,46.4,39.2,76,29.98,6.2,WSW,21.9,-,N/A,,Partly Cloudy,250,2013-01-31 18:20:00
7:50 PM,44.6,39.2,81,29.98,6.2,WSW,20.7,-,N/A,,Partly Cloudy,250,2013-01-31 18:50:00
8:20 PM,44.6,39.2,81,29.98,6.2,WSW,17.3,-,N/A,,Partly Cloudy,250,2013-01-31 19:20:00
8:50 PM,44.6,39.2,81,29.98,6.2,WSW,19.6,-,N/A,,Scattered Clouds,250,2013-01-31 19:50:00
9:20 PM,44.6,39.2,81,29.98,6.2,WSW,20.7,-,N/A,,Scattered Clouds,240,2013-01-31 20:20:00
9:50 PM,44.6,39.2,81,29.98,6.2,WSW,21.9,-,N/A,,Scattered Clouds,240,2013-01-31 20:50:00
10:00 PM,45,40,77,30.00,7,WSW,22.4,,,,Mostly Cloudy,240,2013-01-31 21:00:00
10:20 PM,44.6,39.2,81,29.98,6.2,WSW,19.6,-,N/A,,Scattered Clouds,240,2013-01-31 21:20:00
10:50 PM,44.6,39.2,81,29.98,6.2,WSW,19.6,-,N/A,,Scattered Clouds,240,2013-01-31 21:50:00
11:20 PM,44.6,39.2,81,29.98,6.2,WSW,18.4,-,N/A,,Scattered Clouds,240,2013-01-31 22:20:00
11:50 PM,44.6,39.2,81,29.98,6.2,WSW,19.6,-,N/A,,Scattered Clouds,240,2013-01-31 22:50:00